createdAt,value
2019-01-12T00:01:54.718Z,14.83
2019-01-12T00:05:00.020Z,14.33
2019-01-12T00:08:05.109Z,13.07
2019-01-12T00:11:10.228Z,13.40
2019-01-12T00:14:15.378Z,13.40
2019-01-12T00:17:20.518Z,12.67
2019-01-12T00:20:26.150Z,13.47
2019-01-12T00:23:31.821Z,13.23
2019-01-12T00:26:36.975Z,12.30
2019-01-12T00:29:43.708Z,11.57
2019-01-12T00:32:48.608Z,12.00
2019-01-12T00:35:53.642Z,13.23
2019-01-12T00:38:58.797Z,11.77
2019-01-12T00:42:03.890Z,11.97
2019-01-12T00:45:09.950Z,13.50
2019-01-12T00:48:16.362Z,12.20
2019-01-12T00:51:21.602Z,13.10
2019-01-12T00:54:27.223Z,11.70
2019-01-12T00:57:32.136Z,12.43
2019-01-12T01:00:37.071Z,11.97
2019-01-12T01:03:42.068Z,12.43
2019-01-12T01:06:47.157Z,12.50
2019-01-12T01:09:52.494Z,12.83
2019-01-12T01:12:57.838Z,15.20
2019-01-12T01:16:02.864Z,10.97
2019-01-12T01:19:07.981Z,12.20
2019-01-12T01:22:13.052Z,11.00
2019-01-12T01:25:18.389Z,13.90
2019-01-12T01:28:23.478Z,12.13
2019-01-12T01:31:28.612Z,11.37
2019-01-12T01:34:33.617Z,12.43
2019-01-12T01:37:38.745Z,12.30
2019-01-12T01:40:43.881Z,12.67
2019-01-12T01:43:49.037Z,12.57
2019-01-12T01:46:53.979Z,13.33
2019-01-12T01:49:59.144Z,13.97
2019-01-12T01:53:04.004Z,13.10
2019-01-12T01:56:09.192Z,13.13
2019-01-12T01:59:15.150Z,14.37
2019-01-12T02:02:20.180Z,12.93
2019-01-12T02:05:25.114Z,13.30
2019-01-12T02:08:29.986Z,12.10
2019-01-12T02:11:35.294Z,12.23
2019-01-12T02:14:40.453Z,12.87
2019-01-12T02:17:45.210Z,11.60
2019-01-12T02:20:50.123Z,11.33
2019-01-12T02:23:55.263Z,12.17
2019-01-12T02:27:00.253Z,10.67
2019-01-12T02:30:07.460Z,12.47
2019-01-12T02:33:12.450Z,11.73
2019-01-12T02:36:17.451Z,10.77
2019-01-12T02:39:22.617Z,10.73
2019-01-12T02:42:27.526Z,10.33
2019-01-12T02:45:32.435Z,12.20
2019-01-12T02:48:37.387Z,10.47
2019-01-12T02:51:42.539Z,11.97
2019-01-12T02:54:47.461Z,11.47
2019-01-12T02:57:52.381Z,10.20
2019-01-12T03:00:57.271Z,11.00
2019-01-12T03:04:02.209Z,11.63
2019-01-12T03:07:07.889Z,11.27
2019-01-12T03:10:14.463Z,9.20
2019-01-12T03:13:19.690Z,10.30
2019-01-12T03:16:24.647Z,9.43
2019-01-12T03:19:29.730Z,9.50
2019-01-12T03:22:34.730Z,9.80
2019-01-12T03:25:39.701Z,8.77
2019-01-12T03:28:44.864Z,9.00
2019-01-12T03:31:49.729Z,9.43
2019-01-12T03:34:54.646Z,11.30
2019-01-12T03:37:59.707Z,10.00
2019-01-12T03:41:05.209Z,10.00
2019-01-12T03:44:10.288Z,10.43
2019-01-12T03:47:15.307Z,9.67
2019-01-12T03:50:21.177Z,10.30
2019-01-12T03:53:26.078Z,9.20
2019-01-12T03:56:31.222Z,10.90
2019-01-12T03:59:36.173Z,11.23
2019-01-12T04:02:41.125Z,11.60
2019-01-12T04:05:46.342Z,9.90
2019-01-12T04:08:51.303Z,10.27
2019-01-12T04:11:56.191Z,9.10
2019-01-12T04:15:01.370Z,8.93
2019-01-12T04:18:06.518Z,9.20
2019-01-12T04:21:11.579Z,9.33
2019-01-12T04:24:16.458Z,9.80
2019-01-12T04:27:21.576Z,8.73
2019-01-12T04:30:26.574Z,9.07
2019-01-12T04:33:31.612Z,8.50
2019-01-12T04:36:36.738Z,9.20
2019-01-12T04:39:41.706Z,8.83
2019-01-12T04:42:46.659Z,8.80
2019-01-12T04:45:51.709Z,8.60
2019-01-12T04:48:56.691Z,9.13
2019-01-12T04:52:01.969Z,8.77
2019-01-12T04:55:07.386Z,9.50
2019-01-12T04:58:12.485Z,8.60
2019-01-12T05:01:17.457Z,8.43
2019-01-12T05:04:22.416Z,8.70
2019-01-12T05:07:27.437Z,9.30
2019-01-12T05:10:32.292Z,9.73
2019-01-12T05:13:37.299Z,9.60
2019-01-12T05:16:42.477Z,8.07
2019-01-12T05:19:47.506Z,8.33
2019-01-12T05:22:52.740Z,8.50
2019-01-12T05:25:57.734Z,8.30
2019-01-12T05:29:03.024Z,10.07
2019-01-12T05:32:08.136Z,8.30
2019-01-12T05:35:13.067Z,10.03
2019-01-12T05:38:18.045Z,9.00
2019-01-12T05:41:23.182Z,13.10
2019-01-12T05:44:28.501Z,10.93
2019-01-12T05:47:33.486Z,8.80
2019-01-12T05:50:38.582Z,9.07
2019-01-12T05:53:43.989Z,9.23
2019-01-12T05:56:49.235Z,9.13
2019-01-12T05:59:54.144Z,9.37
2019-01-12T06:02:59.064Z,9.60
2019-01-12T06:06:04.119Z,11.00
2019-01-12T06:09:09.220Z,10.77
2019-01-12T06:12:14.214Z,10.30
2019-01-12T06:15:19.327Z,10.60
2019-01-12T06:18:24.473Z,9.40
2019-01-12T06:21:29.542Z,10.87
2019-01-12T06:24:34.753Z,13.03
2019-01-12T06:27:39.677Z,12.23
2019-01-12T06:30:44.568Z,13.10
2019-01-12T06:33:49.469Z,11.70
2019-01-12T06:36:54.562Z,10.33
2019-01-12T06:39:59.630Z,10.10
2019-01-12T06:43:04.594Z,9.30
2019-01-12T06:46:09.704Z,9.63
2019-01-12T06:49:14.669Z,8.93
2019-01-12T06:52:19.772Z,9.60
2019-01-12T06:55:24.747Z,10.67
2019-01-12T06:58:29.855Z,8.83
2019-01-12T07:01:35.218Z,10.40
2019-01-12T07:04:40.259Z,9.97
2019-01-12T07:07:45.512Z,10.80
2019-01-12T07:10:50.420Z,10.37
2019-01-12T07:13:55.286Z,9.03
2019-01-12T07:17:00.237Z,9.30
2019-01-12T07:20:06.270Z,10.20
2019-01-12T07:23:11.419Z,9.63
2019-01-12T07:26:21.799Z,7.90
2019-01-12T07:29:26.820Z,9.80
2019-01-12T07:32:32.061Z,8.70
2019-01-12T07:35:36.979Z,10.17
2019-01-12T07:38:41.886Z,10.10
2019-01-12T07:41:46.955Z,10.20
2019-01-12T07:44:52.224Z,9.07
2019-01-12T07:47:57.132Z,10.20
2019-01-12T07:51:02.299Z,8.20
2019-01-12T07:54:07.238Z,9.23
2019-01-12T07:57:12.177Z,8.90
2019-01-12T08:00:19.571Z,8.90
2019-01-12T08:03:24.666Z,7.50
2019-01-12T08:06:29.877Z,9.17
2019-01-12T08:09:35.036Z,9.13
2019-01-12T08:12:39.905Z,10.00
2019-01-12T08:15:45.169Z,7.10
2019-01-12T08:18:50.740Z,11.00
2019-01-12T08:21:56.040Z,8.73
2019-01-12T08:25:01.138Z,8.83
2019-01-12T08:28:06.347Z,8.00
2019-01-12T08:31:11.492Z,8.60
2019-01-12T08:34:16.467Z,8.47
2019-01-12T08:37:21.417Z,7.50
2019-01-12T08:40:26.457Z,9.50
2019-01-12T08:43:31.501Z,8.53
2019-01-12T08:46:36.575Z,8.73
2019-01-12T08:49:41.861Z,9.70
2019-01-12T08:52:46.922Z,9.80
2019-01-12T08:55:51.917Z,8.77
2019-01-12T08:58:56.822Z,9.40
2019-01-12T09:02:01.992Z,10.23
2019-01-12T09:05:07.645Z,10.50
2019-01-12T09:08:12.897Z,10.40
2019-01-12T09:11:17.829Z,9.63
2019-01-12T09:14:22.739Z,11.70
2019-01-12T09:17:27.733Z,13.40
2019-01-12T09:20:32.889Z,11.73
2019-01-12T09:23:37.944Z,11.40
2019-01-12T09:26:44.989Z,10.93
2019-01-12T09:29:49.672Z,10.60
2019-01-12T09:32:55.084Z,9.93
2019-01-12T09:36:00.009Z,8.93
2019-01-12T09:39:07.996Z,9.83
2019-01-12T09:42:13.055Z,9.63
2019-01-12T09:45:18.673Z,10.90
2019-01-12T09:48:23.616Z,9.33
2019-01-12T09:51:28.574Z,11.03
2019-01-12T09:54:33.406Z,10.23
2019-01-12T09:57:38.394Z,9.33
2019-01-12T10:00:43.502Z,8.70
2019-01-12T10:03:48.725Z,9.77
2019-01-12T10:06:53.637Z,7.90
2019-01-12T10:09:58.784Z,8.90
2019-01-12T10:13:03.730Z,8.23
2019-01-12T10:16:08.697Z,7.37
2019-01-12T10:19:13.578Z,7.43
2019-01-12T10:22:18.492Z,8.17
2019-01-12T10:25:23.580Z,7.90
2019-01-12T10:28:28.686Z,8.33
2019-01-12T10:31:33.651Z,8.13
2019-01-12T10:34:38.688Z,7.30
2019-01-12T10:37:44.177Z,6.37
2019-01-12T10:40:49.385Z,7.33
2019-01-12T10:43:54.364Z,7.57
2019-01-12T10:46:59.308Z,7.60
2019-01-12T10:50:07.735Z,7.63
2019-01-12T10:53:13.105Z,6.80
2019-01-12T10:56:18.209Z,6.07
2019-01-12T10:59:23.258Z,5.97
2019-01-12T11:02:28.325Z,7.17
2019-01-12T11:05:33.450Z,6.40
2019-01-12T11:08:38.732Z,6.70
2019-01-12T11:11:43.774Z,7.80
2019-01-12T11:14:48.822Z,7.40
2019-01-12T11:17:53.796Z,7.27
2019-01-12T11:20:59.055Z,5.20
2019-01-12T11:24:04.156Z,7.30
2019-01-12T11:27:12.303Z,5.67
2019-01-12T11:30:18.204Z,5.53
2019-01-12T11:33:23.589Z,5.23
2019-01-12T11:36:28.533Z,5.57
2019-01-12T11:39:33.641Z,5.23
2019-01-12T11:42:38.665Z,4.53
2019-01-12T11:45:43.909Z,3.97
2019-01-12T11:48:48.925Z,2.67
2019-01-12T11:51:54.195Z,3.57
2019-01-12T11:54:59.528Z,3.43
2019-01-12T11:58:05.129Z,5.00
2019-01-12T12:01:10.040Z,4.13
2019-01-12T12:04:15.205Z,4.60
2019-01-12T12:07:20.482Z,5.50
2019-01-12T12:10:25.577Z,6.00
2019-01-12T12:13:30.766Z,5.77
2019-01-12T12:16:35.786Z,5.33
2019-01-12T12:19:40.785Z,5.80
2019-01-12T12:22:45.883Z,7.10
2019-01-12T12:25:51.269Z,5.73
2019-01-12T12:28:56.281Z,9.00
2019-01-12T12:32:01.435Z,7.40
2019-01-12T12:35:07.790Z,6.07
2019-01-12T12:38:12.881Z,7.00
2019-01-12T12:41:17.846Z,7.00
2019-01-12T12:44:23.184Z,6.90
2019-01-12T12:47:28.349Z,5.80
2019-01-12T12:50:33.414Z,7.43
2019-01-12T12:53:38.404Z,7.27
2019-01-12T12:56:43.630Z,8.13
2019-01-12T12:59:48.456Z,8.47
2019-01-12T13:02:53.493Z,9.20
2019-01-12T13:05:58.577Z,8.60
2019-01-12T13:09:05.685Z,9.00
2019-01-12T13:12:11.003Z,8.80
2019-01-12T13:15:16.645Z,8.10
2019-01-12T13:18:21.811Z,9.67
2019-01-12T13:21:26.849Z,8.70
2019-01-12T13:24:31.914Z,10.03
2019-01-12T13:27:40.040Z,8.83
2019-01-12T13:30:44.142Z,8.90
2019-01-12T13:33:49.381Z,9.07
2019-01-12T13:36:54.669Z,8.30
2019-01-12T13:39:59.750Z,8.20
2019-01-12T13:43:04.907Z,9.40
2019-01-12T13:46:09.974Z,8.10
2019-01-12T13:49:15.133Z,8.00
2019-01-12T13:52:19.976Z,11.23
2019-01-12T13:55:25.014Z,10.77
2019-01-12T13:58:30.166Z,9.00
2019-01-12T14:01:35.293Z,9.93
2019-01-12T14:04:40.192Z,10.53
2019-01-12T14:07:45.418Z,10.53
2019-01-12T14:10:50.712Z,8.77
2019-01-12T14:13:55.786Z,9.27
2019-01-12T14:17:01.003Z,9.37
2019-01-12T14:20:09.168Z,9.70
2019-01-12T14:23:14.339Z,9.67
2019-01-12T14:26:19.660Z,9.17
2019-01-12T14:29:24.762Z,10.00
2019-01-12T14:32:30.134Z,9.20
2019-01-12T14:35:35.374Z,9.60
2019-01-12T14:38:40.417Z,9.80
2019-01-12T14:41:45.356Z,8.90
2019-01-12T14:44:50.599Z,9.80
2019-01-12T14:47:55.609Z,9.80
2019-01-12T14:51:00.666Z,10.60
2019-01-12T14:54:05.816Z,10.03
2019-01-12T14:57:10.879Z,9.60
2019-01-12T15:00:20.667Z,10.37
2019-01-12T15:03:25.679Z,9.30
2019-01-12T15:06:30.638Z,10.03
2019-01-12T15:09:35.644Z,9.67
2019-01-12T15:12:40.729Z,10.97
2019-01-12T15:15:45.661Z,11.90
2019-01-12T15:18:50.851Z,10.83
2019-01-12T15:21:55.889Z,10.70
2019-01-12T15:25:01.051Z,13.70
2019-01-12T15:28:09.303Z,11.00
2019-01-12T15:31:12.511Z,10.53
2019-01-12T15:34:17.588Z,11.77
2019-01-12T15:37:22.898Z,11.40
2019-01-12T15:40:27.992Z,11.93
2019-01-12T15:43:32.891Z,11.00
2019-01-12T15:46:37.860Z,11.70
2019-01-12T15:49:42.798Z,12.70
2019-01-12T15:52:47.907Z,11.83
2019-01-12T15:55:53.196Z,12.87
2019-01-12T15:58:58.364Z,17.00
2019-01-12T16:02:03.816Z,15.40
2019-01-12T16:05:09.682Z,17.67
2019-01-12T16:08:14.905Z,17.73
2019-01-12T16:11:19.738Z,15.33
2019-01-12T16:14:24.727Z,16.37
2019-01-12T16:17:29.690Z,15.93
2019-01-12T16:20:39.522Z,13.47
2019-01-12T16:23:44.683Z,13.13
2019-01-12T16:26:49.773Z,12.93
2019-01-12T16:29:54.768Z,12.60
2019-01-12T16:32:59.845Z,13.57
2019-01-12T16:36:04.868Z,12.07
2019-01-12T16:39:10.408Z,15.63
2019-01-12T16:42:15.515Z,15.23
2019-01-12T16:45:20.592Z,16.90
2019-01-12T16:48:26.048Z,18.17
2019-01-12T16:51:31.274Z,14.03
2019-01-12T16:54:36.652Z,13.20
2019-01-12T16:57:41.793Z,14.50
2019-01-12T17:00:46.805Z,13.07
2019-01-12T17:03:51.961Z,14.43
2019-01-12T17:06:56.895Z,13.53
2019-01-12T17:10:01.778Z,15.40
2019-01-12T17:13:06.939Z,14.83
2019-01-12T17:16:12.070Z,14.13
2019-01-12T17:19:17.561Z,14.30
2019-01-12T17:22:22.613Z,13.33
2019-01-12T17:25:27.862Z,21.63
2019-01-12T17:28:37.217Z,15.53
2019-01-12T17:31:40.269Z,17.20
2019-01-12T17:34:45.361Z,16.67
2019-01-12T17:37:51.068Z,16.20
2019-01-12T17:40:56.309Z,15.40
2019-01-12T17:44:01.257Z,15.10
2019-01-12T17:47:06.540Z,16.70
2019-01-12T17:50:13.433Z,18.60
2019-01-12T17:53:18.462Z,19.53
2019-01-12T17:56:23.892Z,15.73
2019-01-12T17:59:29.013Z,16.47
2019-01-12T18:02:34.168Z,14.07
2019-01-12T18:05:39.320Z,16.93
2019-01-12T18:08:44.601Z,17.47
2019-01-12T18:11:50.031Z,17.10
2019-01-12T18:14:55.133Z,22.57
2019-01-12T18:18:00.493Z,17.10
2019-01-12T18:21:05.700Z,15.67
2019-01-12T18:24:10.690Z,20.30
2019-01-12T18:27:15.792Z,16.77
2019-01-12T18:30:21.364Z,18.20
2019-01-12T18:33:26.572Z,15.20
2019-01-12T18:36:31.713Z,16.23
2019-01-12T18:39:36.705Z,15.03
2019-01-12T18:42:41.862Z,16.13
2019-01-12T18:45:47.020Z,16.70
2019-01-12T18:48:52.013Z,16.20
2019-01-12T18:51:57.126Z,17.00
2019-01-12T18:55:02.238Z,14.93
2019-01-12T18:58:07.320Z,17.00
2019-01-12T19:01:12.416Z,16.07
2019-01-12T19:04:17.577Z,17.30
2019-01-12T19:07:22.646Z,15.13
2019-01-12T19:10:27.832Z,16.30
2019-01-12T19:13:32.929Z,15.90
2019-01-12T19:16:37.964Z,16.47
2019-01-12T19:19:42.970Z,16.80
2019-01-12T19:22:48.419Z,15.47
2019-01-12T19:25:53.442Z,15.23
2019-01-12T19:28:58.417Z,16.57
2019-01-12T19:32:03.854Z,16.20
2019-01-12T19:35:08.830Z,16.70
2019-01-12T19:38:14.264Z,16.83
2019-01-12T19:41:19.432Z,15.43
2019-01-12T19:44:24.444Z,14.10
2019-01-12T19:47:29.562Z,14.47
2019-01-12T19:50:34.607Z,14.37
2019-01-12T19:53:39.608Z,14.27
2019-01-12T19:56:44.616Z,15.23
2019-01-12T19:59:49.961Z,17.00
2019-01-12T20:02:55.786Z,19.20
2019-01-12T20:06:00.796Z,27.30
2019-01-12T20:09:24.613Z,28.93
2019-01-12T20:12:30.044Z,30.47
2019-01-12T20:15:35.528Z,27.67
2019-01-12T20:18:40.556Z,23.57
2019-01-12T20:21:45.537Z,17.23
2019-01-12T20:24:50.727Z,17.27
2019-01-12T20:27:55.770Z,16.90
2019-01-12T20:31:54.720Z,16.97
2019-01-12T20:35:42.300Z,17.40
2019-01-12T20:39:22.646Z,17.23
2019-01-12T20:42:53.962Z,17.47
2019-01-12T20:46:14.432Z,17.80
2019-01-12T20:50:01.871Z,17.10
2019-01-12T20:53:23.664Z,16.37
2019-01-12T20:57:43.151Z,14.80
2019-01-12T21:01:30.636Z,15.27
2019-01-12T21:05:16.046Z,15.73
2019-01-12T21:08:48.577Z,16.00
2019-01-12T21:12:34.515Z,15.60
2019-01-12T21:15:44.696Z,17.10
2019-01-12T21:18:49.719Z,17.20
2019-01-12T21:21:55.169Z,15.70
2019-01-12T21:25:00.424Z,13.50
2019-01-12T21:28:05.932Z,15.20
2019-01-12T21:31:10.871Z,15.77
2019-01-12T21:34:16.008Z,16.37
2019-01-12T21:37:21.131Z,15.47
2019-01-12T21:40:26.915Z,15.23
2019-01-12T21:43:32.122Z,15.40
2019-01-12T21:46:37.368Z,15.47
2019-01-12T21:49:42.612Z,14.90
2019-01-12T21:52:47.976Z,14.80
2019-01-12T21:55:53.554Z,15.10
2019-01-12T21:58:58.765Z,16.20
2019-01-12T22:02:04.313Z,16.57
2019-01-12T22:05:10.117Z,16.80
2019-01-12T22:08:15.458Z,16.97
2019-01-12T22:11:24.325Z,16.77
2019-01-12T22:14:29.260Z,16.20
2019-01-12T22:17:34.243Z,17.27
2019-01-12T22:20:39.319Z,16.53
2019-01-12T22:23:44.323Z,17.20
2019-01-12T22:26:49.568Z,15.77
2019-01-12T22:29:54.622Z,15.60
2019-01-12T22:32:59.715Z,15.10
2019-01-12T22:36:04.764Z,16.37
2019-01-12T22:39:10.778Z,17.27
2019-01-12T22:42:15.778Z,16.20
2019-01-12T22:45:20.919Z,15.40
2019-01-12T22:48:25.884Z,16.20
2019-01-12T22:51:30.796Z,19.90
2019-01-12T22:54:35.944Z,21.63
2019-01-12T22:57:40.896Z,23.67
2019-01-12T23:01:11.230Z,23.80
2019-01-12T23:04:18.754Z,25.47
2019-01-12T23:07:24.269Z,26.37
2019-01-12T23:10:29.572Z,27.60
2019-01-12T23:13:34.656Z,24.80
2019-01-12T23:16:39.792Z,30.40
2019-01-12T23:19:44.857Z,28.50
2019-01-12T23:22:50.297Z,27.20
2019-01-12T23:25:55.214Z,27.20
2019-01-12T23:29:00.365Z,23.83
2019-01-12T23:32:05.632Z,20.70
2019-01-12T23:35:11.232Z,21.13
2019-01-12T23:38:16.317Z,24.77
2019-01-12T23:41:21.450Z,24.73
2019-01-12T23:44:26.531Z,21.80
2019-01-12T23:47:32.017Z,21.07
2019-01-12T23:50:37.031Z,21.67
2019-01-12T23:53:42.009Z,21.50
2019-01-12T23:56:47.241Z,19.53
2019-01-12T23:59:52.131Z,19.10
